Humidity-temperature Sensor

Selected Measurement Type: Air Temperature

 
Air Temperature [°C]     6 entries per hour
Showing data from 11/20/2022 (00:00:00 Z) to 11/19/2022 (00:01:00 Z)
Previous Next [ Day | 3-Days | 7-Days ]
First Last
Prev [ Day | 3-Days | 7-Days ] Next
First Last

Start Time:     :
End Time:     :     
Time (in GMT) :00 :50 :40 :30 :20 :10
Previous Next [ Day | 3-Days | 7-Days ]
First Last
Prev [ Day | 3-Days | 7-Days ] Next
First Last


123 => good data
MM => data is determined as missing
-- => data not received/configured
Back to Top Back to Top
11/20/2022 00:00 to 23:10 24.20 24.42 24.55 24.54 24.65 24.89
11/19/2022 23:00 to 22:10 25.02 25.02 25.33 25.45 25.30 25.18
11/19/2022 22:00 to 21:10 25.26 25.23 25.17 25.33 25.17 25.15
11/19/2022 21:00 to 20:10 25.17 25.08 25.14 25.35 25.23 25.50
11/19/2022 20:00 to 19:10 25.54 25.36 25.56 25.33 25.65 25.31
11/19/2022 19:00 to 18:10 25.34 25.41 25.35 25.27 25.36 25.24
11/19/2022 18:00 to 17:10 25.06 25.16 25.19 25.16 25.18 25.28
11/19/2022 17:00 to 16:10 25.27 25.16 25.09 25.05 25.24 24.99
11/19/2022 16:00 to 15:10 25.10 25.01 24.45 24.37 24.11 23.87
11/19/2022 15:00 to 14:10 24.45 24.07 24.30 24.26 24.34 24.22
11/19/2022 14:00 to 13:10 24.33 24.39 24.37 24.25 24.14 24.38
11/19/2022 13:00 to 12:10 24.38 24.36 24.00 24.27 24.33 24.18
11/19/2022 12:00 to 11:10 24.61 24.33 24.20 24.42 24.66 24.41
11/19/2022 11:00 to 10:10 24.43 24.32 24.27 24.30 24.40 24.33
11/19/2022 10:00 to 9:10 24.37 24.54 24.75 24.55 24.55 24.64
11/19/2022 09:00 to 8:10 24.53 24.59 24.59 24.57 24.71 24.65
11/19/2022 08:00 to 7:10 24.66 24.55 24.75 24.62 24.69 24.43
11/19/2022 07:00 to 6:10 24.75 24.94 24.39 24.37 24.18 24.46
11/19/2022 06:00 to 5:10 24.48 24.42 24.65 24.57 24.63 24.38
11/19/2022 05:00 to 4:10 24.72 24.59 24.57 24.52 24.60 24.33
11/19/2022 04:00 to 3:10 24.44 24.51 24.58 24.54 24.52 24.25
11/19/2022 03:00 to 2:10 24.54 24.35 24.31 24.30 24.60 24.78
11/19/2022 02:00 to 1:10 24.76 24.63 24.71 24.95 24.60 24.66
11/19/2022 01:00 to 0:10 24.59 24.62 24.66 24.57 24.66 24.38